Albion, California
Current Conditions -  °F | °C
As of 3:56 AM on Sunday 23 Nov 2014 (Local Time) from KUKI Reporting Station
Clear Clear  
Wind Chill:   Ceiling: Unl
Heat Index:   Visibility: 10mi
Dew Point:   Wind: 5mph
Humidity: 89%   Direction: 330°NNW
Pressure: 30.34"   Gusts: NA
Location:  39.22°N, 123.77°W
Report Text: KUKI 231156Z AUTO 33004KT 10SM CLR 06/04 A3034 RMK AO2 SLP271 70031 T00610044 10083 20044 51013
Loading
Personal Weather Stations






























Interactive Weather Map New forecast layout! Learn more

10-Day Weather Forecast

Advertisements
Track Severe Weather on mobile